sensor_id;sensor_type;location;lat;lon;timestamp;P1;durP1;ratioP1;P2;durP2;ratioP2
15958;SDS011;8078;47.822;9.402;2023-09-07T00:01:17;6.32;;;5.65;;
15958;SDS011;8078;47.822;9.402;2023-09-07T00:03:43;5.80;;;5.20;;
15958;SDS011;8078;47.822;9.402;2023-09-07T00:06:09;6.43;;;5.53;;
15958;SDS011;8078;47.822;9.402;2023-09-07T00:08:37;6.35;;;5.35;;
15958;SDS011;8078;47.822;9.402;2023-09-07T00:11:03;9.57;;;5.47;;
15958;SDS011;8078;47.822;9.402;2023-09-07T00:13:29;6.57;;;5.55;;
15958;SDS011;8078;47.822;9.402;2023-09-07T00:15:58;8.25;;;5.93;;
15958;SDS011;8078;47.822;9.402;2023-09-07T00:18:28;6.68;;;5.53;;
15958;SDS011;8078;47.822;9.402;2023-09-07T00:20:54;6.13;;;5.53;;
15958;SDS011;8078;47.822;9.402;2023-09-07T00:23:20;6.63;;;5.30;;
15958;SDS011;8078;47.822;9.402;2023-09-07T00:25:46;9.15;;;6.00;;
15958;SDS011;8078;47.822;9.402;2023-09-07T00:28:11;8.13;;;6.10;;
15958;SDS011;8078;47.822;9.402;2023-09-07T00:30:37;8.25;;;5.80;;
15958;SDS011;8078;47.822;9.402;2023-09-07T00:33:04;7.97;;;5.78;;
15958;SDS011;8078;47.822;9.402;2023-09-07T00:35:30;10.30;;;5.70;;
15958;SDS011;8078;47.822;9.402;2023-09-07T00:37:55;6.75;;;5.57;;
15958;SDS011;8078;47.822;9.402;2023-09-07T00:40:24;6.60;;;5.63;;
15958;SDS011;8078;47.822;9.402;2023-09-07T00:42:51;5.97;;;5.20;;
15958;SDS011;8078;47.822;9.402;2023-09-07T00:45:17;7.03;;;5.78;;
15958;SDS011;8078;47.822;9.402;2023-09-07T00:47:42;11.95;;;5.65;;
15958;SDS011;8078;47.822;9.402;2023-09-07T00:50:08;7.22;;;5.63;;
15958;SDS011;8078;47.822;9.402;2023-09-07T00:52:34;7.18;;;5.53;;
15958;SDS011;8078;47.822;9.402;2023-09-07T00:55:04;7.10;;;5.53;;
15958;SDS011;8078;47.822;9.402;2023-09-07T00:57:30;6.20;;;5.38;;
15958;SDS011;8078;47.822;9.402;2023-09-07T00:59:56;14.05;;;6.78;;
15958;SDS011;8078;47.822;9.402;2023-09-07T01:02:23;12.90;;;6.13;;
15958;SDS011;8078;47.822;9.402;2023-09-07T01:04:50;7.60;;;5.88;;
15958;SDS011;8078;47.822;9.402;2023-09-07T01:07:26;8.25;;;5.93;;
15958;SDS011;8078;47.822;9.402;2023-09-07T01:09:59;8.05;;;5.78;;
15958;SDS011;8078;47.822;9.402;2023-09-07T01:12:27;7.40;;;5.88;;
15958;SDS011;8078;47.822;9.402;2023-09-07T01:14:53;6.72;;;5.55;;
15958;SDS011;8078;47.822;9.402;2023-09-07T01:17:19;6.43;;;5.57;;
15958;SDS011;8078;47.822;9.402;2023-09-07T01:19:48;8.38;;;5.78;;
15958;SDS011;8078;47.822;9.402;2023-09-07T01:22:18;11.70;;;5.75;;
15958;SDS011;8078;47.822;9.402;2023-09-07T01:24:44;10.60;;;6.57;;
15958;SDS011;8078;47.822;9.402;2023-09-07T01:27:12;6.50;;;5.80;;
15958;SDS011;8078;47.822;9.402;2023-09-07T01:29:38;6.82;;;5.78;;
15958;SDS011;8078;47.822;9.402;2023-09-07T01:32:04;9.60;;;5.97;;
15958;SDS011;8078;47.822;9.402;2023-09-07T01:34:30;8.63;;;5.93;;
15958;SDS011;8078;47.822;9.402;2023-09-07T01:36:56;8.20;;;5.70;;
15958;SDS011;8078;47.822;9.402;2023-09-07T01:39:22;6.20;;;5.07;;
15958;SDS011;8078;47.822;9.402;2023-09-07T01:41:48;7.18;;;5.45;;
15958;SDS011;8078;47.822;9.402;2023-09-07T01:44:13;7.18;;;5.72;;
15958;SDS011;8078;47.822;9.402;2023-09-07T01:46:39;6.97;;;5.90;;
15958;SDS011;8078;47.822;9.402;2023-09-07T01:49:04;6.55;;;5.55;;
15958;SDS011;8078;47.822;9.402;2023-09-07T01:51:30;7.10;;;5.70;;
15958;SDS011;8078;47.822;9.402;2023-09-07T01:53:55;8.93;;;5.72;;
15958;SDS011;8078;47.822;9.402;2023-09-07T01:56:21;7.32;;;5.88;;
15958;SDS011;8078;47.822;9.402;2023-09-07T01:58:47;8.07;;;5.80;;
15958;SDS011;8078;47.822;9.402;2023-09-07T02:01:22;7.05;;;6.05;;
15958;SDS011;8078;47.822;9.402;2023-09-07T02:03:49;7.15;;;5.75;;
15958;SDS011;8078;47.822;9.402;2023-09-07T02:06:14;6.05;;;5.45;;
15958;SDS011;8078;47.822;9.402;2023-09-07T02:08:40;6.95;;;5.70;;
15958;SDS011;8078;47.822;9.402;2023-09-07T02:11:05;6.65;;;5.95;;
15958;SDS011;8078;47.822;9.402;2023-09-07T02:13:31;6.82;;;5.90;;
15958;SDS011;8078;47.822;9.402;2023-09-07T02:15:57;7.47;;;6.13;;
15958;SDS011;8078;47.822;9.402;2023-09-07T02:18:22;8.98;;;6.40;;
15958;SDS011;8078;47.822;9.402;2023-09-07T02:20:48;7.40;;;6.60;;
15958;SDS011;8078;47.822;9.402;2023-09-07T02:23:14;6.55;;;5.47;;
15958;SDS011;8078;47.822;9.402;2023-09-07T02:25:40;9.18;;;6.07;;
15958;SDS011;8078;47.822;9.402;2023-09-07T02:28:06;8.70;;;6.28;;
15958;SDS011;8078;47.822;9.402;2023-09-07T02:30:31;9.70;;;5.93;;
15958;SDS011;8078;47.822;9.402;2023-09-07T02:32:57;7.68;;;6.10;;
15958;SDS011;8078;47.822;9.402;2023-09-07T02:35:23;7.47;;;6.07;;
15958;SDS011;8078;47.822;9.402;2023-09-07T02:37:48;7.30;;;6.13;;
15958;SDS011;8078;47.822;9.402;2023-09-07T02:40:14;11.27;;;6.55;;
15958;SDS011;8078;47.822;9.402;2023-09-07T02:42:41;7.20;;;5.85;;
15958;SDS011;8078;47.822;9.402;2023-09-07T02:45:09;10.52;;;6.35;;
15958;SDS011;8078;47.822;9.402;2023-09-07T02:47:36;6.95;;;5.85;;
15958;SDS011;8078;47.822;9.402;2023-09-07T02:50:03;6.90;;;6.03;;
15958;SDS011;8078;47.822;9.402;2023-09-07T02:52:29;9.05;;;6.70;;
15958;SDS011;8078;47.822;9.402;2023-09-07T02:54:54;7.13;;;6.13;;
15958;SDS011;8078;47.822;9.402;2023-09-07T02:57:20;7.40;;;6.28;;
15958;SDS011;8078;47.822;9.402;2023-09-07T02:59:45;7.90;;;6.60;;
15958;SDS011;8078;47.822;9.402;2023-09-07T03:02:11;7.55;;;6.57;;
15958;SDS011;8078;47.822;9.402;2023-09-07T03:04:37;9.38;;;6.45;;
15958;SDS011;8078;47.822;9.402;2023-09-07T03:07:02;7.10;;;6.30;;
15958;SDS011;8078;47.822;9.402;2023-09-07T03:09:28;6.63;;;5.80;;
15958;SDS011;8078;47.822;9.402;2023-09-07T03:11:54;7.10;;;6.10;;
15958;SDS011;8078;47.822;9.402;2023-09-07T03:14:19;8.20;;;6.50;;
15958;SDS011;8078;47.822;9.402;2023-09-07T03:16:45;9.52;;;6.07;;
15958;SDS011;8078;47.822;9.402;2023-09-07T03:19:13;7.55;;;6.70;;
15958;SDS011;8078;47.822;9.402;2023-09-07T03:21:39;9.18;;;6.93;;
15958;SDS011;8078;47.822;9.402;2023-09-07T03:24:05;10.40;;;7.07;;
15958;SDS011;8078;47.822;9.402;2023-09-07T03:26:31;11.85;;;6.93;;
15958;SDS011;8078;47.822;9.402;2023-09-07T03:28:56;8.95;;;6.85;;
15958;SDS011;8078;47.822;9.402;2023-09-07T03:31:22;7.78;;;6.32;;
15958;SDS011;8078;47.822;9.402;2023-09-07T03:33:48;10.00;;;8.05;;
15958;SDS011;8078;47.822;9.402;2023-09-07T03:36:14;8.20;;;7.32;;
15958;SDS011;8078;47.822;9.402;2023-09-07T03:38:40;7.63;;;6.38;;
15958;SDS011;8078;47.822;9.402;2023-09-07T03:41:06;8.07;;;6.05;;
15958;SDS011;8078;47.822;9.402;2023-09-07T03:43:31;8.63;;;6.35;;
15958;SDS011;8078;47.822;9.402;2023-09-07T03:45:57;8.43;;;5.90;;
15958;SDS011;8078;47.822;9.402;2023-09-07T03:48:23;8.60;;;5.80;;
15958;SDS011;8078;47.822;9.402;2023-09-07T03:50:49;6.55;;;5.90;;
15958;SDS011;8078;47.822;9.402;2023-09-07T03:53:14;7.35;;;6.03;;
15958;SDS011;8078;47.822;9.402;2023-09-07T03:55:40;6.80;;;6.13;;
15958;SDS011;8078;47.822;9.402;2023-09-07T03:58:07;9.20;;;6.47;;
15958;SDS011;8078;47.822;9.402;2023-09-07T04:00:40;10.55;;;6.68;;
15958;SDS011;8078;47.822;9.402;2023-09-07T04:03:06;8.38;;;6.20;;
15958;SDS011;8078;47.822;9.402;2023-09-07T04:05:32;7.05;;;5.95;;
15958;SDS011;8078;47.822;9.402;2023-09-07T04:07:58;7.72;;;6.15;;
15958;SDS011;8078;47.822;9.402;2023-09-07T04:10:25;7.07;;;6.35;;
15958;SDS011;8078;47.822;9.402;2023-09-07T04:12:51;8.77;;;7.15;;
15958;SDS011;8078;47.822;9.402;2023-09-07T04:15:16;10.00;;;6.70;;
15958;SDS011;8078;47.822;9.402;2023-09-07T04:17:42;8.80;;;7.10;;
15958;SDS011;8078;47.822;9.402;2023-09-07T04:20:08;10.48;;;7.10;;
15958;SDS011;8078;47.822;9.402;2023-09-07T04:22:35;11.68;;;7.60;;
15958;SDS011;8078;47.822;9.402;2023-09-07T04:25:01;13.93;;;9.05;;
15958;SDS011;8078;47.822;9.402;2023-09-07T04:27:26;12.38;;;8.63;;
15958;SDS011;8078;47.822;9.402;2023-09-07T04:29:52;9.82;;;8.07;;
15958;SDS011;8078;47.822;9.402;2023-09-07T04:32:18;14.00;;;10.43;;
15958;SDS011;8078;47.822;9.402;2023-09-07T04:34:44;17.23;;;10.13;;
15958;SDS011;8078;47.822;9.402;2023-09-07T04:37:11;13.57;;;9.13;;
15958;SDS011;8078;47.822;9.402;2023-09-07T04:39:36;12.10;;;9.95;;
15958;SDS011;8078;47.822;9.402;2023-09-07T04:42:02;10.60;;;7.93;;
15958;SDS011;8078;47.822;9.402;2023-09-07T04:44:27;11.73;;;9.52;;
15958;SDS011;8078;47.822;9.402;2023-09-07T04:46:56;11.65;;;9.48;;
15958;SDS011;8078;47.822;9.402;2023-09-07T04:49:25;11.63;;;9.77;;
15958;SDS011;8078;47.822;9.402;2023-09-07T04:51:54;13.65;;;9.00;;
15958;SDS011;8078;47.822;9.402;2023-09-07T04:54:19;11.95;;;9.07;;
15958;SDS011;8078;47.822;9.402;2023-09-07T04:56:45;10.88;;;9.05;;
15958;SDS011;8078;47.822;9.402;2023-09-07T04:59:11;11.63;;;8.50;;
15958;SDS011;8078;47.822;9.402;2023-09-07T05:01:36;10.73;;;8.38;;
15958;SDS011;8078;47.822;9.402;2023-09-07T05:04:02;12.32;;;9.63;;
15958;SDS011;8078;47.822;9.402;2023-09-07T05:06:29;9.70;;;8.02;;
15958;SDS011;8078;47.822;9.402;2023-09-07T05:08:54;9.75;;;7.85;;
15958;SDS011;8078;47.822;9.402;2023-09-07T05:11:20;12.48;;;9.70;;
15958;SDS011;8078;47.822;9.402;2023-09-07T05:13:46;11.10;;;9.35;;
15958;SDS011;8078;47.822;9.402;2023-09-07T05:16:11;10.60;;;9.13;;
15958;SDS011;8078;47.822;9.402;2023-09-07T05:18:37;8.77;;;7.47;;
15958;SDS011;8078;47.822;9.402;2023-09-07T05:21:15;9.98;;;7.30;;
15958;SDS011;8078;47.822;9.402;2023-09-07T05:23:41;8.88;;;7.57;;
15958;SDS011;8078;47.822;9.402;2023-09-07T05:26:07;9.45;;;7.72;;
15958;SDS011;8078;47.822;9.402;2023-09-07T05:28:32;13.15;;;9.27;;
15958;SDS011;8078;47.822;9.402;2023-09-07T05:30:58;9.85;;;7.38;;
15958;SDS011;8078;47.822;9.402;2023-09-07T05:33:23;11.35;;;8.73;;
15958;SDS011;8078;47.822;9.402;2023-09-07T05:35:49;8.43;;;6.97;;
15958;SDS011;8078;47.822;9.402;2023-09-07T05:38:15;9.88;;;7.45;;
15958;SDS011;8078;47.822;9.402;2023-09-07T05:40:41;11.02;;;8.90;;
15958;SDS011;8078;47.822;9.402;2023-09-07T05:43:08;9.00;;;7.40;;
15958;SDS011;8078;47.822;9.402;2023-09-07T05:45:34;9.63;;;7.18;;
15958;SDS011;8078;47.822;9.402;2023-09-07T05:48:02;12.65;;;10.30;;
15958;SDS011;8078;47.822;9.402;2023-09-07T05:50:28;11.98;;;9.73;;
15958;SDS011;8078;47.822;9.402;2023-09-07T05:52:54;15.02;;;10.75;;
15958;SDS011;8078;47.822;9.402;2023-09-07T05:55:19;13.98;;;11.07;;
15958;SDS011;8078;47.822;9.402;2023-09-07T05:57:45;12.57;;;11.02;;
15958;SDS011;8078;47.822;9.402;2023-09-07T06:00:11;15.68;;;10.77;;
15958;SDS011;8078;47.822;9.402;2023-09-07T06:02:38;14.90;;;10.60;;
15958;SDS011;8078;47.822;9.402;2023-09-07T06:05:04;14.00;;;10.65;;
15958;SDS011;8078;47.822;9.402;2023-09-07T06:07:30;15.65;;;10.73;;
15958;SDS011;8078;47.822;9.402;2023-09-07T06:09:56;11.45;;;10.25;;
15958;SDS011;8078;47.822;9.402;2023-09-07T06:12:23;9.52;;;7.95;;
15958;SDS011;8078;47.822;9.402;2023-09-07T06:14:49;7.97;;;6.75;;
15958;SDS011;8078;47.822;9.402;2023-09-07T06:17:15;7.25;;;6.45;;
15958;SDS011;8078;47.822;9.402;2023-09-07T06:19:40;8.60;;;7.18;;
15958;SDS011;8078;47.822;9.402;2023-09-07T06:22:06;6.57;;;5.97;;
15958;SDS011;8078;47.822;9.402;2023-09-07T06:24:31;6.28;;;5.60;;
15958;SDS011;8078;47.822;9.402;2023-09-07T06:26:57;7.50;;;6.10;;
15958;SDS011;8078;47.822;9.402;2023-09-07T06:29:22;7.32;;;6.28;;
15958;SDS011;8078;47.822;9.402;2023-09-07T06:31:48;7.72;;;6.13;;
15958;SDS011;8078;47.822;9.402;2023-09-07T06:34:15;7.55;;;6.72;;
15958;SDS011;8078;47.822;9.402;2023-09-07T06:36:41;7.95;;;6.45;;
15958;SDS011;8078;47.822;9.402;2023-09-07T06:39:06;7.70;;;6.10;;
15958;SDS011;8078;47.822;9.402;2023-09-07T06:41:32;9.98;;;6.05;;
15958;SDS011;8078;47.822;9.402;2023-09-07T06:43:58;6.90;;;5.47;;
15958;SDS011;8078;47.822;9.402;2023-09-07T06:46:23;5.70;;;4.95;;
15958;SDS011;8078;47.822;9.402;2023-09-07T06:48:49;6.68;;;4.82;;
15958;SDS011;8078;47.822;9.402;2023-09-07T06:51:14;6.85;;;5.75;;
15958;SDS011;8078;47.822;9.402;2023-09-07T06:53:40;5.40;;;4.90;;
15958;SDS011;8078;47.822;9.402;2023-09-07T06:56:06;6.35;;;5.68;;
15958;SDS011;8078;47.822;9.402;2023-09-07T06:58:32;10.00;;;6.45;;
15958;SDS011;8078;47.822;9.402;2023-09-07T07:00:59;9.70;;;6.38;;
15958;SDS011;8078;47.822;9.402;2023-09-07T07:03:26;7.20;;;6.40;;
15958;SDS011;8078;47.822;9.402;2023-09-07T07:05:52;8.85;;;7.57;;
15958;SDS011;8078;47.822;9.402;2023-09-07T07:08:18;9.65;;;7.97;;
15958;SDS011;8078;47.822;9.402;2023-09-07T07:10:44;8.13;;;7.30;;
15958;SDS011;8078;47.822;9.402;2023-09-07T07:13:10;11.65;;;7.88;;
15958;SDS011;8078;47.822;9.402;2023-09-07T07:15:36;9.32;;;7.22;;
15958;SDS011;8078;47.822;9.402;2023-09-07T07:18:01;9.75;;;7.70;;
15958;SDS011;8078;47.822;9.402;2023-09-07T07:20:33;10.32;;;7.93;;
15958;SDS011;8078;47.822;9.402;2023-09-07T07:22:59;11.93;;;7.75;;
15958;SDS011;8078;47.822;9.402;2023-09-07T07:25:25;8.93;;;6.97;;
15958;SDS011;8078;47.822;9.402;2023-09-07T07:27:50;10.93;;;7.40;;
15958;SDS011;8078;47.822;9.402;2023-09-07T07:30:16;9.27;;;7.68;;
15958;SDS011;8078;47.822;9.402;2023-09-07T07:32:42;10.43;;;7.57;;
15958;SDS011;8078;47.822;9.402;2023-09-07T07:35:07;9.60;;;7.55;;
15958;SDS011;8078;47.822;9.402;2023-09-07T07:37:33;10.45;;;7.68;;
15958;SDS011;8078;47.822;9.402;2023-09-07T07:39:58;8.95;;;7.07;;
15958;SDS011;8078;47.822;9.402;2023-09-07T07:42:24;10.23;;;6.80;;
15958;SDS011;8078;47.822;9.402;2023-09-07T07:44:49;10.23;;;6.85;;
15958;SDS011;8078;47.822;9.402;2023-09-07T07:47:15;7.90;;;6.55;;
15958;SDS011;8078;47.822;9.402;2023-09-07T07:49:41;7.22;;;6.47;;
15958;SDS011;8078;47.822;9.402;2023-09-07T07:52:07;8.60;;;7.30;;
15958;SDS011;8078;47.822;9.402;2023-09-07T07:54:33;7.88;;;6.90;;
15958;SDS011;8078;47.822;9.402;2023-09-07T07:56:59;8.02;;;6.35;;
15958;SDS011;8078;47.822;9.402;2023-09-07T07:59:24;8.00;;;6.47;;
15958;SDS011;8078;47.822;9.402;2023-09-07T08:01:50;8.75;;;6.65;;
15958;SDS011;8078;47.822;9.402;2023-09-07T08:04:15;7.53;;;6.72;;
15958;SDS011;8078;47.822;9.402;2023-09-07T08:06:41;8.52;;;6.50;;
15958;SDS011;8078;47.822;9.402;2023-09-07T08:09:06;7.30;;;6.38;;
15958;SDS011;8078;47.822;9.402;2023-09-07T08:11:33;7.75;;;6.75;;
15958;SDS011;8078;47.822;9.402;2023-09-07T08:13:59;6.70;;;6.10;;
15958;SDS011;8078;47.822;9.402;2023-09-07T08:16:24;9.15;;;6.55;;
15958;SDS011;8078;47.822;9.402;2023-09-07T08:18:50;6.95;;;5.93;;
15958;SDS011;8078;47.822;9.402;2023-09-07T08:21:15;8.80;;;6.30;;
15958;SDS011;8078;47.822;9.402;2023-09-07T08:23:41;8.88;;;7.15;;
15958;SDS011;8078;47.822;9.402;2023-09-07T08:26:07;8.13;;;6.30;;
15958;SDS011;8078;47.822;9.402;2023-09-07T08:28:34;8.77;;;6.53;;
15958;SDS011;8078;47.822;9.402;2023-09-07T08:31:00;7.57;;;6.32;;
15958;SDS011;8078;47.822;9.402;2023-09-07T08:33:26;7.00;;;6.20;;
15958;SDS011;8078;47.822;9.402;2023-09-07T08:35:55;8.52;;;5.57;;
15958;SDS011;8078;47.822;9.402;2023-09-07T08:38:22;6.90;;;6.20;;
15958;SDS011;8078;47.822;9.402;2023-09-07T08:40:51;7.15;;;5.85;;
15958;SDS011;8078;47.822;9.402;2023-09-07T08:43:19;7.18;;;4.40;;
15958;SDS011;8078;47.822;9.402;2023-09-07T08:45:46;5.82;;;4.15;;
15958;SDS011;8078;47.822;9.402;2023-09-07T08:48:17;5.82;;;4.38;;
15958;SDS011;8078;47.822;9.402;2023-09-07T08:50:47;6.88;;;4.57;;
15958;SDS011;8078;47.822;9.402;2023-09-07T08:53:17;4.38;;;3.83;;
15958;SDS011;8078;47.822;9.402;2023-09-07T08:55:45;4.57;;;4.03;;
15958;SDS011;8078;47.822;9.402;2023-09-07T08:58:10;9.18;;;4.35;;
15958;SDS011;8078;47.822;9.402;2023-09-07T09:00:36;5.50;;;4.50;;
15958;SDS011;8078;47.822;9.402;2023-09-07T09:03:02;5.60;;;4.55;;
15958;SDS011;8078;47.822;9.402;2023-09-07T09:05:29;7.10;;;4.55;;
15958;SDS011;8078;47.822;9.402;2023-09-07T09:08:05;7.68;;;5.30;;
15958;SDS011;8078;47.822;9.402;2023-09-07T09:10:30;9.50;;;5.70;;
15958;SDS011;8078;47.822;9.402;2023-09-07T09:12:56;6.10;;;5.50;;
15958;SDS011;8078;47.822;9.402;2023-09-07T09:15:24;6.85;;;6.15;;
15958;SDS011;8078;47.822;9.402;2023-09-07T09:17:52;6.68;;;6.07;;
15958;SDS011;8078;47.822;9.402;2023-09-07T09:20:22;7.30;;;5.95;;
15958;SDS011;8078;47.822;9.402;2023-09-07T09:22:50;6.63;;;5.93;;
15958;SDS011;8078;47.822;9.402;2023-09-07T09:25:19;12.63;;;5.97;;
15958;SDS011;8078;47.822;9.402;2023-09-07T09:27:46;9.60;;;6.32;;
15958;SDS011;8078;47.822;9.402;2023-09-07T09:30:14;7.90;;;5.95;;
15958;SDS011;8078;47.822;9.402;2023-09-07T09:32:41;7.93;;;5.78;;
15958;SDS011;8078;47.822;9.402;2023-09-07T09:35:08;7.63;;;4.95;;
15958;SDS011;8078;47.822;9.402;2023-09-07T09:37:42;9.00;;;5.18;;
15958;SDS011;8078;47.822;9.402;2023-09-07T09:40:09;7.63;;;5.18;;
15958;SDS011;8078;47.822;9.402;2023-09-07T09:42:35;6.22;;;4.70;;
15958;SDS011;8078;47.822;9.402;2023-09-07T09:45:02;10.20;;;5.55;;
15958;SDS011;8078;47.822;9.402;2023-09-07T09:47:30;4.85;;;4.25;;
15958;SDS011;8078;47.822;9.402;2023-09-07T09:49:56;7.78;;;4.78;;
15958;SDS011;8078;47.822;9.402;2023-09-07T09:52:23;5.68;;;4.88;;
15958;SDS011;8078;47.822;9.402;2023-09-07T09:54:51;6.93;;;5.00;;
15958;SDS011;8078;47.822;9.402;2023-09-07T09:57:17;9.13;;;5.43;;
15958;SDS011;8078;47.822;9.402;2023-09-07T09:59:43;5.63;;;4.95;;
15958;SDS011;8078;47.822;9.402;2023-09-07T10:02:09;7.20;;;5.15;;
15958;SDS011;8078;47.822;9.402;2023-09-07T10:04:36;5.70;;;5.10;;
15958;SDS011;8078;47.822;9.402;2023-09-07T10:07:02;11.80;;;6.07;;
15958;SDS011;8078;47.822;9.402;2023-09-07T10:09:32;7.00;;;5.55;;
15958;SDS011;8078;47.822;9.402;2023-09-07T10:11:58;5.78;;;4.95;;
15958;SDS011;8078;47.822;9.402;2023-09-07T10:14:26;7.05;;;5.90;;
15958;SDS011;8078;47.822;9.402;2023-09-07T10:17:02;8.65;;;5.60;;
15958;SDS011;8078;47.822;9.402;2023-09-07T10:19:29;5.82;;;4.82;;
15958;SDS011;8078;47.822;9.402;2023-09-07T10:21:55;6.78;;;5.35;;
15958;SDS011;8078;47.822;9.402;2023-09-07T10:27:04;8.52;;;5.68;;
15958;SDS011;8078;47.822;9.402;2023-09-07T10:29:40;7.05;;;6.30;;
15958;SDS011;8078;47.822;9.402;2023-09-07T10:32:18;7.30;;;6.43;;
15958;SDS011;8078;47.822;9.402;2023-09-07T10:34:44;11.57;;;6.63;;
15958;SDS011;8078;47.822;9.402;2023-09-07T10:37:10;7.40;;;6.35;;
15958;SDS011;8078;47.822;9.402;2023-09-07T10:39:38;9.75;;;6.13;;
15958;SDS011;8078;47.822;9.402;2023-09-07T10:42:04;8.55;;;5.63;;
15958;SDS011;8078;47.822;9.402;2023-09-07T10:44:30;5.47;;;4.93;;
15958;SDS011;8078;47.822;9.402;2023-09-07T10:46:56;7.20;;;5.97;;
15958;SDS011;8078;47.822;9.402;2023-09-07T10:49:23;7.57;;;6.07;;
15958;SDS011;8078;47.822;9.402;2023-09-07T10:51:49;5.70;;;5.03;;
15958;SDS011;8078;47.822;9.402;2023-09-07T10:54:15;8.25;;;6.20;;
15958;SDS011;8078;47.822;9.402;2023-09-07T10:56:50;6.90;;;4.93;;
15958;SDS011;8078;47.822;9.402;2023-09-07T10:59:16;5.53;;;4.93;;
15958;SDS011;8078;47.822;9.402;2023-09-07T11:01:45;6.53;;;5.85;;
15958;SDS011;8078;47.822;9.402;2023-09-07T11:04:13;6.15;;;5.38;;
15958;SDS011;8078;47.822;9.402;2023-09-07T11:06:39;6.20;;;4.68;;
15958;SDS011;8078;47.822;9.402;2023-09-07T11:09:06;7.28;;;6.38;;
15958;SDS011;8078;47.822;9.402;2023-09-07T11:11:35;7.88;;;5.72;;
15958;SDS011;8078;47.822;9.402;2023-09-07T11:14:02;8.77;;;6.25;;
15958;SDS011;8078;47.822;9.402;2023-09-07T11:16:29;8.57;;;6.05;;
15958;SDS011;8078;47.822;9.402;2023-09-07T11:18:55;7.47;;;5.82;;
15958;SDS011;8078;47.822;9.402;2023-09-07T11:21:21;10.07;;;5.63;;
15958;SDS011;8078;47.822;9.402;2023-09-07T11:23:47;9.43;;;5.40;;
15958;SDS011;8078;47.822;9.402;2023-09-07T11:26:14;9.38;;;5.20;;
15958;SDS011;8078;47.822;9.402;2023-09-07T11:28:42;7.05;;;5.35;;
15958;SDS011;8078;47.822;9.402;2023-09-07T11:31:10;7.50;;;5.70;;
15958;SDS011;8078;47.822;9.402;2023-09-07T11:33:36;5.10;;;4.60;;
15958;SDS011;8078;47.822;9.402;2023-09-07T11:36:02;5.95;;;4.88;;
15958;SDS011;8078;47.822;9.402;2023-09-07T11:38:28;5.32;;;4.53;;
15958;SDS011;8078;47.822;9.402;2023-09-07T11:40:55;7.38;;;5.18;;
15958;SDS011;8078;47.822;9.402;2023-09-07T11:43:21;6.72;;;5.18;;
15958;SDS011;8078;47.822;9.402;2023-09-07T11:45:47;5.38;;;4.88;;
15958;SDS011;8078;47.822;9.402;2023-09-07T11:48:13;6.50;;;5.10;;
15958;SDS011;8078;47.822;9.402;2023-09-07T11:50:39;6.50;;;5.25;;
15958;SDS011;8078;47.822;9.402;2023-09-07T11:53:06;7.63;;;5.22;;
15958;SDS011;8078;47.822;9.402;2023-09-07T11:55:32;7.50;;;4.50;;
15958;SDS011;8078;47.822;9.402;2023-09-07T11:58:00;5.65;;;5.03;;
15958;SDS011;8078;47.822;9.402;2023-09-07T12:00:26;8.77;;;4.63;;
15958;SDS011;8078;47.822;9.402;2023-09-07T12:02:52;4.95;;;4.45;;
15958;SDS011;8078;47.822;9.402;2023-09-07T12:05:17;5.28;;;4.55;;
15958;SDS011;8078;47.822;9.402;2023-09-07T12:07:44;5.75;;;4.38;;
15958;SDS011;8078;47.822;9.402;2023-09-07T12:10:10;7.97;;;4.85;;
15958;SDS011;8078;47.822;9.402;2023-09-07T12:12:37;5.30;;;4.20;;
15958;SDS011;8078;47.822;9.402;2023-09-07T12:15:03;5.15;;;4.65;;
15958;SDS011;8078;47.822;9.402;2023-09-07T12:17:30;4.78;;;4.28;;
15958;SDS011;8078;47.822;9.402;2023-09-07T12:19:56;6.75;;;4.22;;
15958;SDS011;8078;47.822;9.402;2023-09-07T12:22:21;5.28;;;4.75;;
15958;SDS011;8078;47.822;9.402;2023-09-07T12:24:47;4.45;;;4.05;;
15958;SDS011;8078;47.822;9.402;2023-09-07T12:27:13;4.30;;;3.90;;
15958;SDS011;8078;47.822;9.402;2023-09-07T12:29:38;5.93;;;4.65;;
15958;SDS011;8078;47.822;9.402;2023-09-07T12:32:04;4.40;;;4.00;;
15958;SDS011;8078;47.822;9.402;2023-09-07T12:34:30;6.10;;;4.40;;
15958;SDS011;8078;47.822;9.402;2023-09-07T12:36:56;5.00;;;4.50;;
15958;SDS011;8078;47.822;9.402;2023-09-07T12:39:21;6.00;;;3.97;;
15958;SDS011;8078;47.822;9.402;2023-09-07T12:41:47;4.40;;;3.97;;
15958;SDS011;8078;47.822;9.402;2023-09-07T12:44:12;5.10;;;4.20;;
15958;SDS011;8078;47.822;9.402;2023-09-07T12:46:39;4.40;;;4.00;;
15958;SDS011;8078;47.822;9.402;2023-09-07T12:49:05;4.75;;;4.05;;
15958;SDS011;8078;47.822;9.402;2023-09-07T12:51:31;5.05;;;4.15;;
15958;SDS011;8078;47.822;9.402;2023-09-07T12:53:56;4.90;;;4.00;;
15958;SDS011;8078;47.822;9.402;2023-09-07T12:56:22;5.78;;;4.13;;
15958;SDS011;8078;47.822;9.402;2023-09-07T12:58:48;6.72;;;4.80;;
15958;SDS011;8078;47.822;9.402;2023-09-07T13:01:14;5.70;;;4.40;;
15958;SDS011;8078;47.822;9.402;2023-09-07T13:03:41;4.90;;;4.32;;
15958;SDS011;8078;47.822;9.402;2023-09-07T13:06:07;6.22;;;4.25;;
15958;SDS011;8078;47.822;9.402;2023-09-07T13:08:33;4.32;;;3.92;;
15958;SDS011;8078;47.822;9.402;2023-09-07T13:10:59;4.30;;;3.90;;
15958;SDS011;8078;47.822;9.402;2023-09-07T13:13:25;5.90;;;4.75;;
15958;SDS011;8078;47.822;9.402;2023-09-07T13:15:56;4.35;;;3.95;;
15958;SDS011;8078;47.822;9.402;2023-09-07T13:18:22;5.15;;;4.05;;
15958;SDS011;8078;47.822;9.402;2023-09-07T13:20:48;4.65;;;4.07;;
15958;SDS011;8078;47.822;9.402;2023-09-07T13:23:19;4.93;;;4.07;;
15958;SDS011;8078;47.822;9.402;2023-09-07T13:25:45;6.60;;;4.20;;
15958;SDS011;8078;47.822;9.402;2023-09-07T13:28:11;6.40;;;4.45;;
15958;SDS011;8078;47.822;9.402;2023-09-07T13:30:36;5.22;;;4.22;;
15958;SDS011;8078;47.822;9.402;2023-09-07T13:33:02;5.13;;;4.47;;
15958;SDS011;8078;47.822;9.402;2023-09-07T13:35:28;4.47;;;4.07;;
15958;SDS011;8078;47.822;9.402;2023-09-07T13:37:54;5.25;;;3.97;;
15958;SDS011;8078;47.822;9.402;2023-09-07T13:40:20;6.25;;;4.10;;
15958;SDS011;8078;47.822;9.402;2023-09-07T13:42:49;5.07;;;4.57;;
15958;SDS011;8078;47.822;9.402;2023-09-07T13:45:14;4.75;;;4.25;;
15958;SDS011;8078;47.822;9.402;2023-09-07T13:47:40;4.63;;;4.00;;
15958;SDS011;8078;47.822;9.402;2023-09-07T13:50:06;4.72;;;4.13;;
15958;SDS011;8078;47.822;9.402;2023-09-07T13:52:32;6.18;;;4.10;;
15958;SDS011;8078;47.822;9.402;2023-09-07T13:54:57;5.03;;;4.40;;
15958;SDS011;8078;47.822;9.402;2023-09-07T13:57:23;5.93;;;4.60;;
15958;SDS011;8078;47.822;9.402;2023-09-07T13:59:48;6.03;;;4.40;;
15958;SDS011;8078;47.822;9.402;2023-09-07T14:02:14;4.40;;;3.92;;
15958;SDS011;8078;47.822;9.402;2023-09-07T14:04:39;5.00;;;4.50;;
15958;SDS011;8078;47.822;9.402;2023-09-07T14:07:05;5.38;;;4.40;;
15958;SDS011;8078;47.822;9.402;2023-09-07T14:09:31;5.97;;;4.82;;
15958;SDS011;8078;47.822;9.402;2023-09-07T14:11:56;6.32;;;4.35;;
15958;SDS011;8078;47.822;9.402;2023-09-07T14:14:22;4.85;;;4.35;;
15958;SDS011;8078;47.822;9.402;2023-09-07T14:16:48;7.55;;;4.78;;
15958;SDS011;8078;47.822;9.402;2023-09-07T14:19:15;8.15;;;4.38;;
15958;SDS011;8078;47.822;9.402;2023-09-07T14:21:40;9.68;;;4.90;;
15958;SDS011;8078;47.822;9.402;2023-09-07T14:24:06;5.13;;;4.15;;
15958;SDS011;8078;47.822;9.402;2023-09-07T14:26:31;8.02;;;4.45;;
15958;SDS011;8078;47.822;9.402;2023-09-07T14:28:57;7.82;;;4.97;;
15958;SDS011;8078;47.822;9.402;2023-09-07T14:31:23;6.28;;;4.00;;
15958;SDS011;8078;47.822;9.402;2023-09-07T14:33:48;6.10;;;4.47;;
15958;SDS011;8078;47.822;9.402;2023-09-07T14:36:14;6.40;;;4.35;;
15958;SDS011;8078;47.822;9.402;2023-09-07T14:38:41;6.68;;;4.35;;
15958;SDS011;8078;47.822;9.402;2023-09-07T14:41:10;8.45;;;4.45;;
15958;SDS011;8078;47.822;9.402;2023-09-07T14:43:46;6.55;;;4.57;;
15958;SDS011;8078;47.822;9.402;2023-09-07T14:46:13;8.23;;;4.40;;
15958;SDS011;8078;47.822;9.402;2023-09-07T14:48:38;6.40;;;3.90;;
15958;SDS011;8078;47.822;9.402;2023-09-07T14:51:04;5.57;;;4.20;;
15958;SDS011;8078;47.822;9.402;2023-09-07T14:53:29;7.07;;;4.57;;
15958;SDS011;8078;47.822;9.402;2023-09-07T14:55:56;6.03;;;4.07;;